Detall de PIREP

Printer-friendly versionPDF version

[2011/03/19 17:18:00]
Flight IATA:CT1001
Pilot Number:026
Company ICAO:CAT
Aircraft Type:F50/A
PAX:50
Aircraft Registration:PAOB
Departing Airport: LICJ
Destination Airport: LICG
Alternate Airport:LICJ
Online: VATSIM
Route:TRP L869 MEGAN M740 ROBET
Flight Level:F110
No Slew and time accel
No pause
Crash detect
Detect pilot in Cockpit between each 30 and 45 minutes
17:18 Zero fuel Weight: 37102 Lbs, Fuel Weight: 3000 Lbs
17:18 VATSIM:LICJ 191620Z 35006KT 9999 SCT010 FEW015TCU 15/12 Q1016
17:18 VATSIM:LICG 191355Z /////KT 9999 SCT010 14/12 Q1017 RMK BKN SCT053 VIS MIN 9999 WIND THR08 /////KT WIND THR21 28011KT BLU METAR COR LICR 191350Z 35014KT 9999 SCT025TCU 17/10 Q1014 RMK VIS MIN 9999
17:19 VOICE CATALONIAN / MEDITERRANEAN ODYSSEY
17:23 Parking Brakes off
17:28 Take-off
17:28 Take off Weight: 40017 Lbs
17:28 Wind: 339º @ 007 Knots Heading: 063º
17:28 POS N38º 10´ 47´´ E013º 06´ 11´´
17:28 Gear Up: 114 Knots
17:28 Flaps:2 at 114 Knots
17:28 Flaps:1 at 126 Knots
17:29 Flaps:0 at 165 Knots
17:38 TOC
17:38 Fuel Weight: 2516 Lb
17:43 Wind:310º@008 Knots Heading: 227º Ground Speed: 256 Knots Altitude 11105 ft
17:54 TOD
17:54 Fuel Weight: 2027 Lb
17:58 Wind:298º@001 Knots Heading: 180º Ground Speed: 219 Knots Altitude 7381 ft
18:04 Gear Down: 161 Knots
18:05 Flaps:1 at 155 Knots
18:06 Flaps:2 at 116 Knots
18:07 TouchDown:Rate -213 ft/min Speed: 106 Knots
18:07 VATSIM:LICG 191355Z /////KT 9999 SCT010 14/12 Q1017 RMK BKN SCT053 VIS MIN 9999 WIND THR08 /////KT WIND THR21 28011KT BLU METAR COR LICR 191350Z 35014KT 9999 SCT025TCU 17/10 Q1014 RMK VIS MIN 9999
18:07 Land
18:07 Wind:295º@000 Knots
18:07 Heading: 256º
18:07 Flight Duration: 00:39
18:07 Landing Weight: 38954 Lbs
18:07 POS N36º 48´ 54´´ E011º 57´ 44´´
18:11 Parking brakes on
18:11 Block to Block Duration: 00:48
18:11 Final Fuel: 1807 Lbls
18:11 Spent Fuel: 1192 Lbls
18:11 Flight Length: 139 NM
18:11 TOD Land Length: 40 NM

Exportar CSV

Powered by Drupal - Modified by Danger4k